Terminal Aerodrome Forecast
Issued by NWS Dallas/Fort Worth, TX

Home | Current Version | Previous Version | Text Only | Print | Product List | Glossary On
Versions: 1 2 3 4 5 6 7 8 9 10 11 12 13 14 15 16 17 18 19 20 21 22 23 24 25 26 27 28 29 30 31 32 33
000
FTUS44 KFWD 060305 AAB
TAFACT
TAF AMD
KACT 060305Z 0603/0624 18003KT 5SM BR BKN007
     FM060900 23006KT 2SM BR OVC004
      TEMPO 0609/0612 1/2SM FG OVC002
     FM061400 34008KT 5SM BR OVC015
     FM061900 36009KT P6SM OVC021=

USA.gov is the U.S. government's official web portal to all federal, state and local government web resources and services.